Barnwell, South Carolina
Current Conditions -  °F | °C
As of 3:55 PM on Monday 22 Dec 2014 (Local Time) from KBNL Reporting Station
Overcast Overcast  
Wind Chill: 43°   Ceiling: 400
Heat Index: 46°   Visibility: NA
Dew Point: 46°   Wind: 7mph
Humidity: 100%   Direction: 50°NE
Pressure: 29.99"   Gusts: NA
Location:  33.24°N, 81.36°W
Report Text: KBNL 222055Z AUTO 05006KT OVC004 08/08 A2999 RMK AO2
Loading
Personal Weather Stations






























Interactive Weather Map New forecast layout! Learn more

10-Day Weather Forecast

Advertisements
Track Severe Weather on mobile